Garulfo — FJXL — position and weather

sailwx.info

Track history (hours):
 
Tides and Currents Weather Stations Pressure Air Temp Water Temp Dewpoint Dewpoint Depression Visibility Wind Speed Wind Dir Waves Ship Positions

Garulfo

Last reported at 2017-Sep-21 21:20 UTC. Time now 2017-Oct-23 02:43 UTC.
Position N 37°25' W 000°49'.
Warning: this ship's position is 31 days out of date.

Length 17 m.

Type: Sailing vessel. MMSI: 228085900.

Date/timePositionNaut miles runAvg speedWind from/ knotsBaromVisibWave heightAir tempDewpointWater temp
2017-Sep-21 21:20N 37°25' W 000°49'2 5.7
2017-Sep-21 20:56N 37°26' W 000°46'162 6.1
2017-Sep-20 18:18N 38°57' E 002°05'2 5.5
2017-Sep-20 17:56N 38°57' E 002°08'3 5.5
2017-Sep-20 17:28N 38°58' E 002°11'8 6.2
2017-Sep-20 16:15N 38°60' E 002°20'5 5.9
2017-Sep-20 15:27N 39°01' E 002°26'3 5.9
2017-Sep-20 15:00N 39°02' E 002°29'8 5.4
2017-Sep-20 13:36N 39°03' E 002°39'1 5.2
2017-Sep-20 13:30N 39°03' E 002°40'3 6.0
2017-Sep-20 12:58N 39°04' E 002°44'3 5.9
2017-Sep-20 12:30N 39°04' E 002°47'3 5.9
2017-Sep-20 11:58N 39°04' E 002°51'3 5.9
2017-Sep-20 11:30N 39°05' E 002°55'3 5.5
2017-Sep-20 10:52N 39°06' E 002°59'2 5.5
2017-Sep-20 10:30N 39°07' E 003°01'3 6.0
2017-Sep-20 10:00N 39°09' E 003°04'3 5.9
2017-Sep-20 09:30N 39°11' E 003°07'3 6.1
2017-Sep-20 08:57N 39°14' E 003°10'4 6.0
2017-Sep-20 08:21N 39°17' E 003°13'2 5.8
2017-Sep-20 07:59N 39°18' E 003°14'  
Track history (hours):
 
Tides and Currents Weather Stations Pressure Air Temp Water Temp Dewpoint Dewpoint Depression Visibility Wind Speed Wind Dir Waves Ship Positions

Garulfo

Last reported at 2017-Sep-21 21:20 UTC. Time now 2017-Oct-23 02:43 UTC.
Position N 37°25' W 000°49'.
Warning: this ship's position is 31 days out of date.

Length 17 m.

Type: Sailing vessel. MMSI: 228085900.

Date/timePositionNaut miles runAvg speedWind from/ knotsBaromVisibWave heightAir tempDewpointWater temp
2017-Sep-21 21:20N 37°25' W 000°49'2 5.7
2017-Sep-21 20:56N 37°26' W 000°46'162 6.1
2017-Sep-20 18:18N 38°57' E 002°05'2 5.5
2017-Sep-20 17:56N 38°57' E 002°08'3 5.5
2017-Sep-20 17:28N 38°58' E 002°11'8 6.2
2017-Sep-20 16:15N 38°60' E 002°20'5 5.9
2017-Sep-20 15:27N 39°01' E 002°26'3 5.9
2017-Sep-20 15:00N 39°02' E 002°29'8 5.4
2017-Sep-20 13:36N 39°03' E 002°39'1 5.2
2017-Sep-20 13:30N 39°03' E 002°40'3 6.0
2017-Sep-20 12:58N 39°04' E 002°44'3 5.9
2017-Sep-20 12:30N 39°04' E 002°47'3 5.9
2017-Sep-20 11:58N 39°04' E 002°51'3 5.9
2017-Sep-20 11:30N 39°05' E 002°55'3 5.5
2017-Sep-20 10:52N 39°06' E 002°59'2 5.5
2017-Sep-20 10:30N 39°07' E 003°01'3 6.0
2017-Sep-20 10:00N 39°09' E 003°04'3 5.9
2017-Sep-20 09:30N 39°11' E 003°07'3 6.1
2017-Sep-20 08:57N 39°14' E 003°10'4 6.0
2017-Sep-20 08:21N 39°17' E 003°13'2 5.8
2017-Sep-20 07:59N 39°18' E 003°14'  

Dump ship's entire track history